Time;durP1;ratioP1;P1;durP2;ratioP2;P2;SDS_P1;SDS_P2;PMS_P1;PMS_P2;Temp;Humidity;BMP_temperature;BMP_pressure;BME280_temperature;BME280_humidity;BME280_pressure;Samples;Min_cycle;Max_cycle;Signal;HPM_P1;HPM_P2
2021/05/18 00:00:17;;;;;;;;;;;10.90;79.20;;;;;;5055067;28;19934;-80
2021/05/18 00:02:43;;;;;;;;;;;10.90;79.30;;;;;;5055564;28;19915;-79
2021/05/18 00:05:13;;;;;;;;;;;10.90;79.30;;;;;;5054910;28;20228;-79
2021/05/18 00:07:42;;;;;;;;;;;10.80;79.40;;;;;;5050765;28;19909;-79
2021/05/18 00:12:52;;;;;;;;;;;10.80;79.50;;;;;;5056455;28;19919;-80
2021/05/18 00:15:19;;;;;;;;;;;10.80;79.60;;;;;;5054733;28;19909;-79
2021/05/18 00:17:45;;;;;;;;;;;10.70;79.60;;;;;;5055316;28;19909;-79
2021/05/18 00:20:11;;;;;;;;;;;10.70;79.70;;;;;;5054668;28;19915;-80
2021/05/18 00:22:37;;;;;;;;;;;10.70;79.70;;;;;;5054672;28;19912;-79
2021/05/18 00:25:07;;;;;;;;;;;10.70;79.70;;;;;;5054647;28;20003;-79
2021/05/18 00:27:32;;;;;;;;;;;10.70;79.70;;;;;;5054634;28;19908;-80
2021/05/18 00:29:58;;;;;;;;;;;10.70;79.80;;;;;;5054449;28;19909;-79
2021/05/18 00:32:24;;;;;;;;;;;10.60;79.70;;;;;;5054422;28;19952;-79
2021/05/18 00:34:53;;;;;;;;;;;10.60;79.80;;;;;;5054451;28;19915;-80
2021/05/18 00:37:20;;;;;;;;;;;10.60;79.90;;;;;;5054328;28;19909;-80
2021/05/18 00:39:45;;;;;;;;;;;10.60;79.90;;;;;;5054240;28;19912;-80
2021/05/18 00:42:18;;;;;;;;;;;10.60;79.90;;;;;;5054246;28;20249;-80
2021/05/18 00:44:44;;;;;;;;;;;10.60;80.00;;;;;;5053686;28;19947;-80
2021/05/18 00:47:10;;;;;;;;;;;10.60;80.00;;;;;;5054329;28;19974;-80
2021/05/18 00:49:36;;;;;;;;;;;10.50;80.00;;;;;;5054328;28;19909;-79
2021/05/18 00:52:03;;;;;;;;;;;10.60;80.00;;;;;;5055413;28;19931;-79
2021/05/18 00:54:36;;;;;;;;;;;10.50;80.00;;;;;;5054145;28;20331;-79
2021/05/18 00:59:47;;;;;;;;;;;10.60;80.00;;;;;;5055893;28;19954;-79
2021/05/18 01:02:12;;;;;;;;;;;10.60;80.00;;;;;;5053941;28;19909;-79
2021/05/18 01:04:41;;;;;;;;;;;10.60;80.00;;;;;;5053931;28;20277;-79
2021/05/18 01:07:07;;;;;;;;;;;10.60;79.90;;;;;;5053834;28;19948;-79
2021/05/18 01:09:33;;;;;;;;;;;10.60;79.90;;;;;;5053957;28;19920;-79
2021/05/18 01:11:58;;;;;;;;;;;10.60;79.90;;;;;;5053619;28;19955;-79
2021/05/18 01:14:24;;;;;;;;;;;10.60;80.00;;;;;;5053587;28;20272;-79
2021/05/18 01:16:50;;;;;;;;;;;10.60;79.90;;;;;;5053597;28;20003;-79
2021/05/18 01:19:17;;;;;;;;;;;10.60;80.00;;;;;;5053455;28;19909;-79
2021/05/18 01:21:43;;;;;;;;;;;10.60;80.00;;;;;;5053615;28;19957;-80
2021/05/18 01:24:09;;;;;;;;;;;10.60;80.00;;;;;;5053360;28;20364;-80
2021/05/18 01:26:36;;;;;;;;;;;10.60;80.00;;;;;;5053543;28;20371;-79
2021/05/18 01:29:02;;;;;;;;;;;10.60;80.00;;;;;;5053485;28;19908;-79
2021/05/18 01:31:28;;;;;;;;;;;10.60;80.00;;;;;;5053487;28;19943;-79
2021/05/18 01:33:54;;;;;;;;;;;10.60;80.00;;;;;;5053511;28;20009;-79
2021/05/18 01:36:22;;;;;;;;;;;10.60;80.00;;;;;;5053565;28;20024;-80
2021/05/18 01:39:03;;;;;;;;;;;10.60;80.00;;;;;;5053802;28;19916;-79
2021/05/18 01:44:13;;;;;;;;;;;10.70;80.00;;;;;;5055049;28;19915;-79
2021/05/18 01:46:41;;;;;;;;;;;10.80;79.90;;;;;;5053144;28;19909;-80
2021/05/18 01:49:08;;;;;;;;;;;10.80;79.90;;;;;;5053092;28;19932;-80
2021/05/18 01:51:35;;;;;;;;;;;10.80;79.80;;;;;;5053125;28;20368;-80
2021/05/18 01:54:05;;;;;;;;;;;10.80;79.80;;;;;;5053010;28;19917;-79
2021/05/18 01:59:11;;;;;;;;;;;11.00;79.80;;;;;;5054609;28;19909;-80
2021/05/18 02:01:36;;;;;;;;;;;11.00;79.80;;;;;;5052925;28;19908;-80
2021/05/18 02:04:03;;;;;;;;;;;11.00;79.80;;;;;;5053099;28;19916;-79
2021/05/18 02:06:28;;;;;;;;;;;11.00;79.70;;;;;;5052924;28;19931;-80
2021/05/18 02:08:55;;;;;;;;;;;11.00;79.70;;;;;;5052938;28;19913;-80
2021/05/18 02:11:23;;;;;;;;;;;11.10;79.70;;;;;;5052849;28;20011;-80
2021/05/18 02:13:51;;;;;;;;;;;11.10;79.70;;;;;;5052766;28;20265;-80
2021/05/18 02:16:21;;;;;;;;;;;11.20;79.70;;;;;;5052791;28;19912;-81
2021/05/18 02:18:57;;;;;;;;;;;11.20;79.70;;;;;;5052937;28;20403;-80
2021/05/18 02:27:15;;;;;;;;;;;11.30;79.70;;;;;;5012873;28;19909;-80
2021/05/18 02:32:44;;;;;;;;;;;11.30;79.70;;;;;;5012998;28;19960;-80
2021/05/18 02:35:13;;;;;;;;;;;11.30;79.70;;;;;;4995718;28;19913;-80
2021/05/18 02:37:39;;;;;;;;;;;11.30;79.70;;;;;;4995844;28;20384;-81
2021/05/18 02:40:09;;;;;;;;;;;11.30;79.70;;;;;;4995497;28;20027;-81
2021/05/18 02:42:34;;;;;;;;;;;11.30;79.80;;;;;;4995567;28;19909;-80
2021/05/18 02:45:09;;;;;;;;;;;11.30;79.70;;;;;;4995425;28;19920;-80
2021/05/18 02:50:19;;;;;;;;;;;11.40;79.70;;;;;;5012278;28;19964;-80
2021/05/18 02:52:45;;;;;;;;;;;11.40;79.70;;;;;;4995425;28;19948;-79
2021/05/18 02:55:18;;;;;;;;;;;11.40;79.70;;;;;;5012377;28;19916;-80
2021/05/18 02:57:46;;;;;;;;;;;11.40;79.70;;;;;;5011990;28;19976;-79
2021/05/18 03:00:16;;;;;;;;;;;11.50;79.70;;;;;;4998664;28;20361;-79
2021/05/18 03:02:41;;;;;;;;;;;11.50;79.70;;;;;;5052029;28;19909;-79
2021/05/18 03:05:07;;;;;;;;;;;11.50;79.70;;;;;;5052180;28;19920;-80
2021/05/18 03:07:33;;;;;;;;;;;11.50;79.70;;;;;;5053648;28;19991;-80
2021/05/18 03:09:59;;;;;;;;;;;11.50;79.70;;;;;;5056155;28;20085;-80
2021/05/18 03:12:24;;;;;;;;;;;11.50;79.70;;;;;;5055907;28;19920;-79
2021/05/18 03:14:50;;;;;;;;;;;11.50;79.70;;;;;;5056030;28;19916;-80
2021/05/18 03:17:15;;;;;;;;;;;11.50;79.80;;;;;;5056183;28;19909;-79
2021/05/18 03:19:41;;;;;;;;;;;11.50;79.80;;;;;;5056049;28;20015;-80
2021/05/18 03:22:07;;;;;;;;;;;11.50;79.70;;;;;;5057386;28;20257;-80
2021/05/18 03:24:33;;;;;;;;;;;11.60;79.80;;;;;;5056201;28;19915;-80
2021/05/18 03:26:58;;;;;;;;;;;11.60;79.80;;;;;;5056043;28;19909;-80
2021/05/18 03:34:36;;;;;;;;;;;11.70;79.80;;;;;;5057709;28;20003;-79
2021/05/18 03:37:15;;;;;;;;;;;11.70;79.80;;;;;;5055928;28;19916;-80
2021/05/18 03:39:42;;;;;;;;;;;11.70;79.80;;;;;;5055577;28;19999;-80
2021/05/18 03:42:12;;;;;;;;;;;11.70;79.80;;;;;;5055909;28;20275;-79
2021/05/18 03:52:33;;;;;;;;;;;11.80;79.80;;;;;;5057072;28;19971;-80
2021/05/18 04:19:09;;;;;;;;;;;11.90;80.00;;;;;;5055581;28;19924;-80
2021/05/18 04:22:07;;;;;;;;;;;11.90;80.10;;;;;;5055102;28;19909;-81
2021/05/18 04:59:28;;;;;;;;;;;12.00;80.40;;;;;;5055719;28;19916;-81
2021/05/18 05:07:04;;;;;;;;;;;12.10;80.40;;;;;;5055437;28;19909;-81
2021/05/18 05:09:33;;;;;;;;;;;12.10;80.40;;;;;;5054043;28;20407;-81
2021/05/18 05:14:43;;;;;;;;;;;12.10;80.50;;;;;;5055544;28;20334;-81
2021/05/18 05:17:10;;;;;;;;;;;12.20;80.50;;;;;;5053812;28;19920;-82
2021/05/18 05:19:35;;;;;;;;;;;12.20;80.50;;;;;;5054099;28;19908;-82
2021/05/18 05:22:02;;;;;;;;;;;12.20;80.60;;;;;;5053921;28;19909;-81
2021/05/18 05:24:27;;;;;;;;;;;12.20;80.70;;;;;;5055181;28;19943;-81
2021/05/18 05:26:53;;;;;;;;;;;12.20;80.70;;;;;;5053851;28;20340;-81
2021/05/18 05:29:19;;;;;;;;;;;12.20;80.70;;;;;;5054055;28;19959;-81
2021/05/18 05:31:46;;;;;;;;;;;12.20;80.80;;;;;;5053619;28;20352;-82
2021/05/18 05:34:12;;;;;;;;;;;12.20;80.90;;;;;;5053449;28;19916;-80
2021/05/18 05:36:38;;;;;;;;;;;12.10;81.00;;;;;;5054002;28;19978;-82
2021/05/18 05:39:11;;;;;;;;;;;12.10;81.10;;;;;;5054344;28;19924;-81
2021/05/18 05:41:37;;;;;;;;;;;12.10;81.30;;;;;;5054576;28;20323;-81
2021/05/18 05:44:04;;;;;;;;;;;12.10;81.40;;;;;;5053988;28;19908;-81
2021/05/18 05:46:30;;;;;;;;;;;12.10;81.80;;;;;;5053617;28;20379;-81
2021/05/18 05:48:56;;;;;;;;;;;12.10;81.80;;;;;;5053925;28;19909;-81
2021/05/18 05:51:23;;;;;;;;;;;12.10;81.70;;;;;;5053973;28;19909;-82
2021/05/18 05:53:48;;;;;;;;;;;12.10;81.70;;;;;;5053743;28;20415;-81
2021/05/18 05:56:14;;;;;;;;;;;12.10;81.60;;;;;;5053609;28;19909;-81
2021/05/18 05:58:39;;;;;;;;;;;12.20;81.60;;;;;;5053766;28;19908;-81
2021/05/18 06:01:05;;;;;;;;;;;12.30;81.70;;;;;;5053354;28;19908;-81
2021/05/18 06:03:31;;;;;;;;;;;12.30;81.60;;;;;;5054870;28;19909;-81
2021/05/18 06:05:57;;;;;;;;;;;12.30;81.50;;;;;;5058340;28;19912;-81
2021/05/18 06:08:22;;;;;;;;;;;12.40;81.70;;;;;;5055092;28;20357;-81
2021/05/18 06:10:51;;;;;;;;;;;12.50;81.80;;;;;;5054083;28;20333;-82
2021/05/18 06:48:34;;;;;;;;;;;13.00;81.50;;;;;;5012500;28;20040;-81
2021/05/18 06:51:00;;;;;;;;;;;13.20;81.40;;;;;;4995546;28;20003;-81
2021/05/18 06:53:25;;;;;;;;;;;13.30;81.40;;;;;;4995302;28;19924;-81
2021/05/18 06:55:53;;;;;;;;;;;13.40;81.20;;;;;;4995528;28;19909;-80
2021/05/18 07:01:04;;;;;;;;;;;13.50;80.90;;;;;;5012009;28;20015;-83
2021/05/18 07:03:35;;;;;;;;;;;13.50;80.70;;;;;;5026857;28;20319;-81
2021/05/18 07:06:48;;;;;;;;;;;13.60;80.80;;;;;;5052323;28;19909;-80
2021/05/18 07:11:16;;;;;;;;;;;13.60;80.60;;;;;;5053516;28;20000;-82
2021/05/18 07:13:42;;;;;;;;;;;13.70;80.60;;;;;;5052120;28;20363;-82
2021/05/18 07:16:07;;;;;;;;;;;13.70;80.50;;;;;;5052325;28;19908;-82
2021/05/18 07:18:33;;;;;;;;;;;13.80;80.30;;;;;;5052280;28;19908;-82
2021/05/18 07:20:59;;;;;;;;;;;13.90;80.20;;;;;;5052105;28;20359;-82
2021/05/18 07:23:26;;;;;;;;;;;14.10;80.00;;;;;;5053352;28;19916;-82
2021/05/18 07:25:51;;;;;;;;;;;14.20;79.70;;;;;;5053386;28;19952;-82
2021/05/18 07:28:21;;;;;;;;;;;14.20;79.30;;;;;;5052093;28;19958;-82
2021/05/18 07:30:47;;;;;;;;;;;14.20;79.10;;;;;;5052237;28;19908;-82
2021/05/18 07:33:12;;;;;;;;;;;14.10;79.10;;;;;;5053421;28;19917;-83
2021/05/18 07:35:38;;;;;;;;;;;13.90;79.20;;;;;;5051915;28;19923;-81
2021/05/18 07:38:04;;;;;;;;;;;13.70;79.50;;;;;;5052218;28;19909;-82
2021/05/18 07:40:31;;;;;;;;;;;13.60;79.90;;;;;;5052024;28;19952;-81
2021/05/18 07:42:56;;;;;;;;;;;13.40;80.20;;;;;;5053382;28;20060;-81
2021/05/18 07:45:26;;;;;;;;;;;13.20;80.40;;;;;;5051837;28;19915;-81
2021/05/18 07:48:00;;;;;;;;;;;13.00;80.30;;;;;;5051769;28;20257;-82
2021/05/18 07:50:41;;;;;;;;;;;12.80;80.50;;;;;;5052050;28;20326;-82
2021/05/18 08:06:47;;;;;;;;;;;12.60;81.40;;;;;;5057994;28;20027;-82
2021/05/18 08:09:13;;;;;;;;;;;12.70;81.50;;;;;;5056011;28;19952;-79
2021/05/18 08:11:38;;;;;;;;;;;12.70;81.40;;;;;;5055970;28;19924;-80
2021/05/18 08:14:04;;;;;;;;;;;12.80;81.20;;;;;;5054919;28;20379;-80
2021/05/18 09:29:33;;;;;;;;;;;14.90;78.00;;;;;;5032758;28;19958;-80
2021/05/18 10:22:40;;;;;;;;;;;14.70;75.80;;;;;;5074233;28;19931;-81
2021/05/18 10:25:32;;;;;;;;;;;14.80;76.00;;;;;;5063308;28;19912;-81
2021/05/18 10:38:25;;;;;;;;;;;15.40;74.80;;;;;;5074267;28;19915;-81
2021/05/18 10:40:52;;;;;;;;;;;15.40;73.80;;;;;;5055622;28;19915;-82
2021/05/18 10:43:20;;;;;;;;;;;15.40;73.90;;;;;;5055826;28;19916;-82
2021/05/18 10:46:02;;;;;;;;;;;15.30;74.20;;;;;;5055866;28;19973;-81
2021/05/18 10:48:34;;;;;;;;;;;15.40;74.50;;;;;;5055835;28;20310;-81
2021/05/18 10:51:22;;;;;;;;;;;15.40;74.30;;;;;;5055694;28;20015;-81
2021/05/18 10:54:08;;;;;;;;;;;15.50;74.30;;;;;;5073548;28;19931;-81
2021/05/18 10:56:56;;;;;;;;;;;15.60;73.90;;;;;;5055693;28;19916;-81
2021/05/18 10:59:29;;;;;;;;;;;15.60;73.70;;;;;;5055489;28;19908;-81
2021/05/18 11:01:59;;;;;;;;;;;15.70;73.80;;;;;;5055662;28;19914;-81
2021/05/18 11:04:26;;;;;;;;;;;15.70;73.80;;;;;;5055572;28;19908;-81
2021/05/18 11:06:52;;;;;;;;;;;15.80;73.70;;;;;;5073595;28;19938;-81
2021/05/18 11:12:25;;;;;;;;;;;16.00;73.40;;;;;;5074197;28;19923;-81
2021/05/18 11:14:52;;;;;;;;;;;16.00;72.80;;;;;;5055479;28;19912;-80
2021/05/18 11:17:20;;;;;;;;;;;16.00;72.50;;;;;;5073453;28;19942;-80
2021/05/18 11:20:16;;;;;;;;;;;16.00;72.30;;;;;;5055352;28;19931;-80
2021/05/18 11:25:32;;;;;;;;;;;16.20;71.80;;;;;;5073559;28;19967;-80
2021/05/18 11:28:05;;;;;;;;;;;16.40;71.90;;;;;;5055777;28;20378;-80
2021/05/18 11:30:30;;;;;;;;;;;16.60;71.60;;;;;;5077441;28;19916;-80
2021/05/18 11:32:56;;;;;;;;;;;16.70;71.60;;;;;;5059037;28;20360;-80
2021/05/18 11:35:22;;;;;;;;;;;16.80;71.60;;;;;;5059273;28;19915;-80
2021/05/18 11:38:01;;;;;;;;;;;16.90;71.50;;;;;;5059097;28;19908;-82
2021/05/18 11:40:37;;;;;;;;;;;17.00;71.20;;;;;;5059044;28;20000;-83
2021/05/18 11:43:24;;;;;;;;;;;17.00;70.80;;;;;;5076802;28;19912;-83
2021/05/18 11:46:02;;;;;;;;;;;17.10;70.10;;;;;;5058915;28;19999;-83
2021/05/18 11:48:28;;;;;;;;;;;17.20;70.50;;;;;;5076858;28;19987;-83
2021/05/18 11:51:01;;;;;;;;;;;17.30;69.00;;;;;;5076777;28;20375;-83
2021/05/18 11:59:36;;;;;;;;;;;17.50;67.20;;;;;;5076958;28;19915;-83
2021/05/18 12:02:05;;;;;;;;;;;17.50;67.10;;;;;;5058725;28;19909;-83
2021/05/18 12:04:31;;;;;;;;;;;17.30;66.50;;;;;;5058744;28;19914;-82
2021/05/18 12:07:12;;;;;;;;;;;17.10;66.10;;;;;;5058687;28;19908;-80
2021/05/18 12:09:42;;;;;;;;;;;16.60;63.50;;;;;;5058470;28;20367;-80
2021/05/18 12:12:09;;;;;;;;;;;15.90;64.70;;;;;;5058392;28;19908;-81
2021/05/18 12:14:51;;;;;;;;;;;15.20;67.00;;;;;;5058938;28;19912;-80
2021/05/18 12:17:31;;;;;;;;;;;14.80;68.50;;;;;;5058446;28;19908;-80
2021/05/18 12:19:58;;;;;;;;;;;14.50;69.70;;;;;;5058676;28;19908;-80
2021/05/18 12:22:24;;;;;;;;;;;14.40;70.40;;;;;;5058314;28;19958;-80
2021/05/18 12:24:49;;;;;;;;;;;14.40;70.30;;;;;;5058209;28;19908;-80
2021/05/18 12:27:15;;;;;;;;;;;14.40;70.60;;;;;;5076429;28;19908;-80
2021/05/18 12:29:49;;;;;;;;;;;14.60;70.30;;;;;;5058100;28;20386;-80
2021/05/18 12:32:15;;;;;;;;;;;14.90;69.90;;;;;;5058145;28;19931;-80
2021/05/18 12:34:41;;;;;;;;;;;15.10;69.20;;;;;;5057992;28;19913;-80
2021/05/18 12:40:16;;;;;;;;;;;15.40;69.30;;;;;;5075409;28;19915;-79
2021/05/18 12:42:43;;;;;;;;;;;15.60;67.70;;;;;;5057672;28;19919;-82
2021/05/18 12:45:10;;;;;;;;;;;15.60;67.00;;;;;;5057877;28;19916;-82
2021/05/18 12:47:37;;;;;;;;;;;15.70;65.40;;;;;;5057813;28;19909;-82
2021/05/18 12:50:05;;;;;;;;;;;15.80;66.50;;;;;;5058038;28;19908;-82
2021/05/18 12:52:34;;;;;;;;;;;15.90;66.40;;;;;;5075636;28;19915;-82
2021/05/18 12:55:00;;;;;;;;;;;16.00;66.00;;;;;;5057689;28;20356;-82
2021/05/18 12:57:27;;;;;;;;;;;16.00;66.20;;;;;;5057659;28;19908;-83
2021/05/18 13:00:14;;;;;;;;;;;16.20;66.10;;;;;;5057599;28;19915;-82
2021/05/18 13:02:40;;;;;;;;;;;16.30;65.90;;;;;;5057945;28;20355;-82
2021/05/18 13:05:12;;;;;;;;;;;16.60;64.50;;;;;;5057366;28;19914;-82
2021/05/18 13:07:38;;;;;;;;;;;16.70;64.90;;;;;;5057429;28;19912;-84
2021/05/18 13:10:05;;;;;;;;;;;16.80;64.90;;;;;;5057483;28;19926;-82
2021/05/18 13:12:31;;;;;;;;;;;17.10;64.80;;;;;;5057220;28;19930;-84
2021/05/18 13:15:07;;;;;;;;;;;17.20;63.80;;;;;;5057390;28;19999;-83
2021/05/18 13:17:33;;;;;;;;;;;17.30;64.00;;;;;;5057316;28;20372;-82
2021/05/18 13:20:00;;;;;;;;;;;17.30;63.70;;;;;;5057223;28;19916;-82
2021/05/18 13:22:28;;;;;;;;;;;17.20;62.80;;;;;;5057099;28;20009;-82
2021/05/18 13:27:57;;;;;;;;;;;17.00;63.60;;;;;;5075148;28;19912;-79
2021/05/18 13:30:27;;;;;;;;;;;16.90;63.70;;;;;;5056267;28;19908;-79
2021/05/18 13:32:53;;;;;;;;;;;16.80;63.20;;;;;;5074691;28;20378;-79
2021/05/18 13:35:20;;;;;;;;;;;17.00;63.80;;;;;;5056938;28;19916;-80
2021/05/18 13:37:46;;;;;;;;;;;17.10;62.70;;;;;;5056999;28;19931;-79
2021/05/18 13:40:12;;;;;;;;;;;17.30;62.60;;;;;;5056488;28;20359;-80
2021/05/18 13:42:38;;;;;;;;;;;17.30;61.30;;;;;;5056387;28;19961;-80
2021/05/18 13:45:04;;;;;;;;;;;17.30;61.60;;;;;;5056615;28;19950;-79
2021/05/18 13:47:30;;;;;;;;;;;17.20;60.90;;;;;;5056675;28;20275;-80
2021/05/18 13:49:55;;;;;;;;;;;17.20;61.10;;;;;;5056932;28;19908;-79
2021/05/18 13:52:21;;;;;;;;;;;17.20;61.10;;;;;;5056506;28;19908;-80
2021/05/18 13:54:47;;;;;;;;;;;17.20;59.50;;;;;;5056433;28;19924;-79
2021/05/18 13:57:12;;;;;;;;;;;17.20;58.70;;;;;;5056513;28;19931;-79
2021/05/18 13:59:38;;;;;;;;;;;17.20;59.20;;;;;;5056491;28;19908;-80
2021/05/18 14:02:03;;;;;;;;;;;17.30;60.00;;;;;;5056310;28;19999;-79
2021/05/18 14:04:29;;;;;;;;;;;17.50;59.30;;;;;;5056285;28;19995;-79
2021/05/18 14:07:22;;;;;;;;;;;17.60;59.30;;;;;;5056873;28;19999;-80
2021/05/18 14:09:48;;;;;;;;;;;17.60;59.40;;;;;;5056547;28;19909;-79
2021/05/18 14:12:13;;;;;;;;;;;17.60;59.50;;;;;;5056125;28;19923;-80
2021/05/18 14:14:39;;;;;;;;;;;17.70;59.20;;;;;;5074069;28;19966;-80
2021/05/18 14:17:04;;;;;;;;;;;17.60;59.20;;;;;;5074079;28;19916;-80
2021/05/18 14:19:30;;;;;;;;;;;17.50;59.80;;;;;;5056025;28;19959;-80
2021/05/18 14:21:55;;;;;;;;;;;17.40;60.30;;;;;;5056177;28;19962;-80
2021/05/18 14:24:24;;;;;;;;;;;17.30;58.30;;;;;;5073998;28;19908;-80
2021/05/18 14:26:50;;;;;;;;;;;17.20;58.40;;;;;;5056082;28;19923;-80
2021/05/18 14:29:16;;;;;;;;;;;17.00;58.10;;;;;;5056034;28;19908;-80
2021/05/18 14:31:41;;;;;;;;;;;16.90;59.50;;;;;;5056670;28;19908;-80
2021/05/18 14:34:08;;;;;;;;;;;17.00;59.30;;;;;;5055854;28;20393;-81
2021/05/18 14:36:34;;;;;;;;;;;17.10;58.70;;;;;;5055886;28;20325;-80
2021/05/18 14:39:05;;;;;;;;;;;17.10;58.00;;;;;;5074373;28;19908;-80
2021/05/18 14:44:21;;;;;;;;;;;17.10;55.70;;;;;;5074404;28;20295;-79
2021/05/18 14:47:07;;;;;;;;;;;17.30;57.60;;;;;;5055579;28;19923;-80
2021/05/18 14:58:38;;;;;;;;;;;17.50;55.30;;;;;;5074175;28;19919;-80
2021/05/18 15:01:07;;;;;;;;;;;17.40;56.60;;;;;;5055870;28;19918;-79
2021/05/18 15:07:06;;;;;;;;;;;17.50;56.70;;;;;;5078160;28;19916;-79
2021/05/18 15:09:32;;;;;;;;;;;17.50;56.40;;;;;;5059571;28;19951;-79
2021/05/18 15:11:57;;;;;;;;;;;17.40;55.90;;;;;;5059437;28;19908;-80
2021/05/18 15:14:23;;;;;;;;;;;17.40;56.50;;;;;;5059554;28;20394;-80
2021/05/18 15:16:48;;;;;;;;;;;17.60;56.50;;;;;;5059474;28;19915;-79
2021/05/18 15:19:18;;;;;;;;;;;17.60;55.80;;;;;;5059240;28;19916;-79
2021/05/18 15:21:44;;;;;;;;;;;17.70;56.20;;;;;;5059005;28;19912;-79
2021/05/18 15:24:09;;;;;;;;;;;17.60;55.40;;;;;;5059268;28;19914;-79
2021/05/18 15:26:38;;;;;;;;;;;17.50;55.90;;;;;;5059396;28;19909;-79
2021/05/18 15:29:04;;;;;;;;;;;17.40;56.10;;;;;;5059312;28;19908;-79
2021/05/18 15:31:30;;;;;;;;;;;17.40;56.60;;;;;;5059258;28;19909;-80
2021/05/18 15:33:56;;;;;;;;;;;17.40;56.10;;;;;;5059074;28;19912;-80
2021/05/18 15:36:21;;;;;;;;;;;17.30;57.20;;;;;;5059181;28;19908;-80
2021/05/18 15:38:47;;;;;;;;;;;17.40;57.10;;;;;;5059140;28;19921;-79
2021/05/18 15:41:14;;;;;;;;;;;17.40;56.50;;;;;;5058917;28;19977;-80
2021/05/18 15:43:40;;;;;;;;;;;17.50;57.00;;;;;;5058804;28;19912;-79
2021/05/18 15:46:06;;;;;;;;;;;17.70;56.00;;;;;;5058896;28;19957;-81
2021/05/18 15:48:32;;;;;;;;;;;18.00;56.00;;;;;;5058925;28;19915;-80
2021/05/18 15:50:58;;;;;;;;;;;18.30;54.50;;;;;;5058904;28;20363;-80
2021/05/18 15:53:24;;;;;;;;;;;18.40;54.20;;;;;;5059136;28;19916;-80
2021/05/18 15:55:50;;;;;;;;;;;18.60;53.90;;;;;;5058729;28;19923;-80
2021/05/18 15:58:15;;;;;;;;;;;18.70;54.10;;;;;;5059226;28;20351;-80
2021/05/18 16:03:44;;;;;;;;;;;18.70;51.90;;;;;;5077709;28;19933;-80
2021/05/18 16:06:10;;;;;;;;;;;18.50;52.70;;;;;;5058744;28;20280;-80
2021/05/18 16:14:07;;;;;;;;;;;18.80;53.00;;;;;;5076807;28;19935;-80
2021/05/18 16:16:33;;;;;;;;;;;18.90;52.90;;;;;;5075951;28;20046;-80
2021/05/18 16:18:59;;;;;;;;;;;18.80;53.40;;;;;;5058595;28;19908;-79
2021/05/18 16:21:25;;;;;;;;;;;18.70;53.30;;;;;;5058382;28;19909;-80
2021/05/18 16:23:53;;;;;;;;;;;18.70;53.60;;;;;;5058722;28;19908;-80
2021/05/18 16:26:23;;;;;;;;;;;18.70;53.30;;;;;;5076384;28;19923;-80
2021/05/18 16:28:49;;;;;;;;;;;18.80;53.10;;;;;;5058545;28;19915;-80
2021/05/18 16:31:15;;;;;;;;;;;18.80;52.80;;;;;;5076071;28;19908;-80
2021/05/18 16:33:41;;;;;;;;;;;18.60;51.70;;;;;;5076161;28;19982;-79
2021/05/18 16:36:07;;;;;;;;;;;18.40;52.60;;;;;;5057988;28;19938;-79
2021/05/18 16:38:34;;;;;;;;;;;18.30;52.80;;;;;;5058067;28;19915;-79
2021/05/18 16:40:59;;;;;;;;;;;18.10;52.40;;;;;;5058000;28;19947;-81
2021/05/18 16:43:26;;;;;;;;;;;18.00;53.10;;;;;;5057709;28;19952;-79
2021/05/18 16:45:53;;;;;;;;;;;17.90;53.40;;;;;;5058055;28;20249;-81
2021/05/18 16:48:19;;;;;;;;;;;17.70;53.80;;;;;;5058258;28;20348;-80
2021/05/18 16:50:45;;;;;;;;;;;17.70;54.10;;;;;;5057678;28;20013;-80
2021/05/18 16:53:10;;;;;;;;;;;17.70;54.20;;;;;;5057729;28;19916;-80
2021/05/18 16:55:37;;;;;;;;;;;17.90;52.70;;;;;;5057840;28;19916;-80
2021/05/18 16:58:03;;;;;;;;;;;18.00;53.80;;;;;;5057679;28;19915;-80
2021/05/18 17:00:28;;;;;;;;;;;17.90;53.50;;;;;;5057627;28;19999;-80
2021/05/18 17:02:54;;;;;;;;;;;17.80;53.80;;;;;;5057461;28;19990;-80
2021/05/18 17:05:19;;;;;;;;;;;17.60;54.20;;;;;;5075491;28;19908;-80
2021/05/18 17:07:45;;;;;;;;;;;17.60;53.70;;;;;;5057480;28;19956;-80
2021/05/18 17:10:11;;;;;;;;;;;17.50;54.10;;;;;;5057447;28;19962;-80
2021/05/18 17:12:36;;;;;;;;;;;17.50;54.10;;;;;;5057160;28;19997;-80
2021/05/18 17:15:03;;;;;;;;;;;17.50;52.80;;;;;;5075154;28;19978;-80
2021/05/18 17:17:29;;;;;;;;;;;17.50;53.70;;;;;;5057589;28;19956;-80
2021/05/18 17:19:55;;;;;;;;;;;17.40;54.10;;;;;;5057631;28;19912;-80
2021/05/18 17:22:24;;;;;;;;;;;17.20;54.50;;;;;;5057505;28;19909;-82
2021/05/18 17:27:53;;;;;;;;;;;16.90;54.60;;;;;;5075471;28;19922;-82
2021/05/18 17:30:20;;;;;;;;;;;16.70;54.70;;;;;;5057184;28;20015;-82
2021/05/18 17:32:46;;;;;;;;;;;16.70;55.10;;;;;;5056962;28;19908;-82
2021/05/18 17:35:12;;;;;;;;;;;16.70;55.10;;;;;;5057173;28;20352;-82
2021/05/18 17:40:49;;;;;;;;;;;16.70;55.60;;;;;;5075665;28;19973;-82
2021/05/18 17:46:17;;;;;;;;;;;16.70;56.10;;;;;;5075618;28;20263;-81
2021/05/18 17:48:43;;;;;;;;;;;16.80;55.80;;;;;;5056652;28;19908;-83
2021/05/18 17:51:11;;;;;;;;;;;16.90;55.90;;;;;;5056610;28;19999;-83
2021/05/18 17:53:36;;;;;;;;;;;17.10;55.70;;;;;;5057074;28;19930;-80
2021/05/18 17:56:02;;;;;;;;;;;17.20;55.80;;;;;;5056531;28;20010;-80
2021/05/18 17:58:28;;;;;;;;;;;17.40;55.40;;;;;;5056486;28;19954;-80
2021/05/18 18:00:53;;;;;;;;;;;17.40;55.50;;;;;;5056825;28;19948;-80
2021/05/18 18:03:19;;;;;;;;;;;17.50;55.20;;;;;;5056319;28;19908;-80
2021/05/18 18:05:45;;;;;;;;;;;17.60;55.20;;;;;;5056367;28;19916;-80
2021/05/18 18:08:10;;;;;;;;;;;17.60;54.60;;;;;;5056175;28;19908;-81
2021/05/18 18:10:39;;;;;;;;;;;17.60;54.10;;;;;;5056148;28;19909;-80
2021/05/18 18:16:08;;;;;;;;;;;17.60;54.50;;;;;;5074165;28;19959;-80
2021/05/18 18:18:35;;;;;;;;;;;17.70;54.20;;;;;;5056113;28;19916;-81
2021/05/18 18:21:02;;;;;;;;;;;17.70;53.50;;;;;;5056006;28;19915;-80
2021/05/18 18:23:32;;;;;;;;;;;17.60;53.90;;;;;;5055842;28;19912;-80
2021/05/18 18:25:58;;;;;;;;;;;17.40;53.40;;;;;;5056071;28;19908;-80
2021/05/18 18:28:24;;;;;;;;;;;17.30;54.30;;;;;;5055809;28;20252;-80
2021/05/18 18:30:49;;;;;;;;;;;17.00;54.50;;;;;;5055899;28;19908;-81
2021/05/18 18:33:15;;;;;;;;;;;16.70;55.10;;;;;;5055783;28;19912;-81
2021/05/18 18:35:41;;;;;;;;;;;16.60;56.30;;;;;;5056097;28;20002;-80
2021/05/18 18:38:09;;;;;;;;;;;16.40;56.00;;;;;;5055659;28;20034;-81
2021/05/18 18:40:36;;;;;;;;;;;16.20;56.20;;;;;;5073694;28;19919;-80
2021/05/18 18:43:02;;;;;;;;;;;16.10;56.60;;;;;;5055508;28;19959;-80
2021/05/18 18:45:28;;;;;;;;;;;16.00;56.90;;;;;;5055613;28;19909;-80
2021/05/18 18:47:54;;;;;;;;;;;15.90;57.10;;;;;;5073754;28;19915;-80
2021/05/18 18:50:24;;;;;;;;;;;15.80;57.40;;;;;;5055919;28;19915;-80
2021/05/18 18:53:15;;;;;;;;;;;15.70;57.50;;;;;;5055474;28;19954;-79
2021/05/18 18:55:40;;;;;;;;;;;15.70;57.70;;;;;;5055292;28;19915;-80
2021/05/18 18:58:07;;;;;;;;;;;15.50;57.80;;;;;;5055573;28;19999;-79
2021/05/18 19:00:32;;;;;;;;;;;15.40;57.90;;;;;;5055507;28;19909;-80
2021/05/18 19:03:02;;;;;;;;;;;15.30;58.00;;;;;;5055397;28;20267;-80
2021/05/18 19:13:19;;;;;;;;;;;15.00;58.40;;;;;;5073539;28;19912;-80
2021/05/18 19:15:44;;;;;;;;;;;15.00;58.40;;;;;;5055339;28;20317;-81
2021/05/18 19:18:10;;;;;;;;;;;14.90;58.50;;;;;;5055545;28;19908;-82
2021/05/18 19:20:36;;;;;;;;;;;14.80;58.70;;;;;;5055450;28;19958;-81
2021/05/18 19:23:02;;;;;;;;;;;14.70;58.60;;;;;;5055503;28;19908;-82
2021/05/18 19:25:28;;;;;;;;;;;14.70;58.80;;;;;;5055267;28;19947;-82
2021/05/18 19:27:59;;;;;;;;;;;14.60;58.80;;;;;;5055570;28;20256;-80
2021/05/18 19:30:25;;;;;;;;;;;14.60;59.00;;;;;;5055226;28;19915;-81
2021/05/18 19:32:50;;;;;;;;;;;14.50;59.10;;;;;;5055183;28;19909;-81
2021/05/18 19:49:19;;;;;;;;;;;14.20;60.00;;;;;;5073680;28;19908;-80
2021/05/18 19:51:46;;;;;;;;;;;14.10;60.10;;;;;;5058873;28;19909;-81
2021/05/18 19:54:35;;;;;;;;;;;14.10;60.20;;;;;;5058709;28;19920;-80
2021/05/18 19:57:45;;;;;;;;;;;14.00;60.40;;;;;;5076182;28;19908;-80
2021/05/18 20:21:27;;;;;;;;;;;13.50;61.80;;;;;;5076424;28;20011;-80
2021/05/18 20:23:52;;;;;;;;;;;13.50;61.90;;;;;;5058527;28;19958;-81
2021/05/18 20:26:18;;;;;;;;;;;13.40;62.00;;;;;;5076229;28;19912;-82
2021/05/18 20:28:43;;;;;;;;;;;13.40;62.10;;;;;;5058558;28;19909;-81
2021/05/18 20:31:09;;;;;;;;;;;13.30;62.20;;;;;;5058178;28;19916;-80
2021/05/18 20:33:50;;;;;;;;;;;13.30;62.40;;;;;;5075929;28;19966;-80
2021/05/18 20:41:13;;;;;;;;;;;13.10;62.80;;;;;;5076229;28;19908;-79
2021/05/18 20:43:38;;;;;;;;;;;13.10;63.00;;;;;;5057572;28;20374;-79
2021/05/18 20:46:04;;;;;;;;;;;13.00;63.10;;;;;;5057902;28;19957;-81
2021/05/18 20:48:29;;;;;;;;;;;13.00;63.30;;;;;;5057809;28;20364;-78
2021/05/18 20:50:55;;;;;;;;;;;13.00;63.40;;;;;;5057828;28;19908;-79
2021/05/18 20:53:21;;;;;;;;;;;13.00;63.50;;;;;;5075645;28;19917;-79